sensor_id;sensor_type;location;lat;lon;timestamp;noise_LAeq;noise_LA_min;noise_LA_max;noise_LA01;noise_LA95
73638;Laerm;53743;51.100;5.874;2023-06-14T00:00:46;34.58;29.10;52.19;;
73638;Laerm;53743;51.100;5.874;2023-06-14T00:01:49;51.47;28.48;70.11;;
73638;Laerm;53743;51.100;5.874;2023-06-14T00:02:51;51.95;28.80;71.33;;
73638;Laerm;53743;51.100;5.874;2023-06-14T00:03:56;55.55;28.92;72.14;;
73638;Laerm;53743;51.100;5.874;2023-06-14T00:04:57;38.35;28.89;54.44;;
73638;Laerm;53743;51.100;5.874;2023-06-14T00:06:00;30.65;28.60;36.95;;
73638;Laerm;53743;51.100;5.874;2023-06-14T00:07:01;30.36;28.53;32.27;;
73638;Laerm;53743;51.100;5.874;2023-06-14T00:08:03;31.78;29.19;36.26;;
73638;Laerm;53743;51.100;5.874;2023-06-14T00:09:07;30.96;29.26;42.19;;
73638;Laerm;53743;51.100;5.874;2023-06-14T00:10:11;31.74;29.32;37.63;;
73638;Laerm;53743;51.100;5.874;2023-06-14T00:11:12;31.99;29.49;45.27;;
73638;Laerm;53743;51.100;5.874;2023-06-14T00:12:14;30.73;29.05;38.15;;
73638;Laerm;53743;51.100;5.874;2023-06-14T00:13:15;30.83;28.41;49.50;;
73638;Laerm;53743;51.100;5.874;2023-06-14T00:14:18;30.39;28.69;43.07;;
73638;Laerm;53743;51.100;5.874;2023-06-14T00:15:19;30.89;28.90;33.50;;
73638;Laerm;53743;51.100;5.874;2023-06-14T00:16:21;30.76;29.00;33.71;;
73638;Laerm;53743;51.100;5.874;2023-06-14T00:17:23;31.32;29.40;34.79;;
73638;Laerm;53743;51.100;5.874;2023-06-14T00:18:27;30.60;28.87;34.09;;
73638;Laerm;53743;51.100;5.874;2023-06-14T00:19:30;32.42;29.01;39.89;;
73638;Laerm;53743;51.100;5.874;2023-06-14T00:20:33;53.46;29.68;67.73;;
73638;Laerm;53743;51.100;5.874;2023-06-14T00:21:34;34.16;28.98;44.10;;
73638;Laerm;53743;51.100;5.874;2023-06-14T00:22:37;30.30;28.38;31.91;;
73638;Laerm;53743;51.100;5.874;2023-06-14T00:23:39;30.98;28.86;37.58;;
73638;Laerm;53743;51.100;5.874;2023-06-14T00:24:41;30.35;28.24;32.76;;
73638;Laerm;53743;51.100;5.874;2023-06-14T00:25:42;30.44;28.60;38.04;;
73638;Laerm;53743;51.100;5.874;2023-06-14T00:26:44;30.08;28.03;32.10;;
73638;Laerm;53743;51.100;5.874;2023-06-14T00:27:45;29.77;28.01;31.29;;
73638;Laerm;53743;51.100;5.874;2023-06-14T00:28:47;29.66;27.97;31.20;;
73638;Laerm;53743;51.100;5.874;2023-06-14T00:29:48;30.14;28.20;37.82;;
73638;Laerm;53743;51.100;5.874;2023-06-14T00:30:50;30.95;28.38;41.17;;
73638;Laerm;53743;51.100;5.874;2023-06-14T00:31:51;30.05;28.39;34.36;;
73638;Laerm;53743;51.100;5.874;2023-06-14T00:32:53;50.34;28.90;65.80;;
73638;Laerm;53743;51.100;5.874;2023-06-14T00:33:55;30.49;28.54;32.74;;
73638;Laerm;53743;51.100;5.874;2023-06-14T00:34:57;30.26;28.20;33.97;;
73638;Laerm;53743;51.100;5.874;2023-06-14T00:35:58;29.74;28.24;38.28;;
73638;Laerm;53743;51.100;5.874;2023-06-14T00:37:01;32.63;28.66;58.42;;
73638;Laerm;53743;51.100;5.874;2023-06-14T00:38:02;51.27;29.16;66.00;;
73638;Laerm;53743;51.100;5.874;2023-06-14T00:39:04;30.13;28.40;34.42;;
73638;Laerm;53743;51.100;5.874;2023-06-14T00:40:06;29.91;28.10;32.73;;
73638;Laerm;53743;51.100;5.874;2023-06-14T00:41:08;29.90;28.42;35.24;;
73638;Laerm;53743;51.100;5.874;2023-06-14T00:42:09;32.02;28.85;38.73;;
73638;Laerm;53743;51.100;5.874;2023-06-14T00:43:11;56.48;28.71;73.52;;
73638;Laerm;53743;51.100;5.874;2023-06-14T00:44:16;31.01;28.43;38.61;;
73638;Laerm;53743;51.100;5.874;2023-06-14T00:45:19;29.88;27.73;31.72;;
73638;Laerm;53743;51.100;5.874;2023-06-14T00:46:21;29.87;28.18;33.52;;
73638;Laerm;53743;51.100;5.874;2023-06-14T00:47:24;55.06;28.71;70.54;;
73638;Laerm;53743;51.100;5.874;2023-06-14T00:48:26;34.56;29.43;41.20;;
73638;Laerm;53743;51.100;5.874;2023-06-14T00:49:31;31.16;28.80;36.19;;
73638;Laerm;53743;51.100;5.874;2023-06-14T00:50:33;31.01;28.63;35.68;;
73638;Laerm;53743;51.100;5.874;2023-06-14T00:51:36;31.15;28.39;39.68;;
73638;Laerm;53743;51.100;5.874;2023-06-14T00:52:39;30.57;28.54;34.81;;
73638;Laerm;53743;51.100;5.874;2023-06-14T00:53:41;31.90;28.77;39.78;;
73638;Laerm;53743;51.100;5.874;2023-06-14T00:54:47;31.33;28.47;38.26;;
73638;Laerm;53743;51.100;5.874;2023-06-14T00:55:49;29.90;28.31;32.67;;
73638;Laerm;53743;51.100;5.874;2023-06-14T00:56:51;29.88;28.55;31.64;;
73638;Laerm;53743;51.100;5.874;2023-06-14T00:57:54;29.91;28.13;31.62;;
73638;Laerm;53743;51.100;5.874;2023-06-14T00:58:57;29.92;28.38;31.41;;
73638;Laerm;53743;51.100;5.874;2023-06-14T00:59:59;29.74;27.86;34.40;;
73638;Laerm;53743;51.100;5.874;2023-06-14T01:02:14;30.75;27.84;42.44;;
73638;Laerm;53743;51.100;5.874;2023-06-14T01:03:16;29.96;28.06;33.61;;
73638;Laerm;53743;51.100;5.874;2023-06-14T01:04:22;29.86;28.08;35.08;;
73638;Laerm;53743;51.100;5.874;2023-06-14T01:05:26;31.10;28.79;48.33;;
73638;Laerm;53743;51.100;5.874;2023-06-14T01:06:36;30.40;28.56;45.47;;
73638;Laerm;53743;51.100;5.874;2023-06-14T01:08:05;29.96;28.30;32.24;;
73638;Laerm;53743;51.100;5.874;2023-06-14T01:09:23;54.15;28.48;72.47;;
73638;Laerm;53743;51.100;5.874;2023-06-14T01:10:41;30.67;28.33;36.55;;
73638;Laerm;53743;51.100;5.874;2023-06-14T01:12:03;29.95;28.16;40.71;;
73638;Laerm;53743;51.100;5.874;2023-06-14T01:13:13;30.35;28.45;32.54;;
73638;Laerm;53743;51.100;5.874;2023-06-14T01:14:20;30.79;28.83;42.82;;
73638;Laerm;53743;51.100;5.874;2023-06-14T01:15:23;30.40;28.43;37.39;;
73638;Laerm;53743;51.100;5.874;2023-06-14T01:16:27;30.06;28.25;32.00;;
73638;Laerm;53743;51.100;5.874;2023-06-14T01:17:31;30.12;28.06;31.68;;
73638;Laerm;53743;51.100;5.874;2023-06-14T01:18:34;31.10;28.56;37.94;;
73638;Laerm;53743;51.100;5.874;2023-06-14T01:19:36;56.14;28.78;71.70;;
73638;Laerm;53743;51.100;5.874;2023-06-14T01:20:41;35.99;29.80;48.87;;
73638;Laerm;53743;51.100;5.874;2023-06-14T01:21:43;31.54;29.58;34.07;;
73638;Laerm;53743;51.100;5.874;2023-06-14T01:22:51;30.70;28.73;33.10;;
73638;Laerm;53743;51.100;5.874;2023-06-14T01:23:53;29.80;28.09;31.72;;
73638;Laerm;53743;51.100;5.874;2023-06-14T01:24:56;29.85;27.95;33.14;;
73638;Laerm;53743;51.100;5.874;2023-06-14T01:25:57;30.48;28.49;32.72;;
73638;Laerm;53743;51.100;5.874;2023-06-14T01:27:01;39.09;29.01;49.91;;
73638;Laerm;53743;51.100;5.874;2023-06-14T01:28:06;36.80;29.02;49.82;;
73638;Laerm;53743;51.100;5.874;2023-06-14T01:29:12;31.07;29.00;38.38;;
73638;Laerm;53743;51.100;5.874;2023-06-14T01:30:23;33.41;28.59;51.26;;
73638;Laerm;53743;51.100;5.874;2023-06-14T01:31:27;31.13;28.93;34.00;;
73638;Laerm;53743;51.100;5.874;2023-06-14T01:32:30;30.54;28.60;33.17;;
73638;Laerm;53743;51.100;5.874;2023-06-14T01:33:35;31.12;28.89;35.14;;
73638;Laerm;53743;51.100;5.874;2023-06-14T01:34:37;31.81;29.01;38.53;;
73638;Laerm;53743;51.100;5.874;2023-06-14T01:35:39;32.36;29.26;36.42;;
73638;Laerm;53743;51.100;5.874;2023-06-14T01:36:45;33.46;29.43;40.32;;
73638;Laerm;53743;51.100;5.874;2023-06-14T01:37:50;30.81;28.80;40.60;;
73638;Laerm;53743;51.100;5.874;2023-06-14T01:38:53;30.62;28.92;33.25;;
73638;Laerm;53743;51.100;5.874;2023-06-14T01:39:57;31.06;29.10;34.46;;
73638;Laerm;53743;51.100;5.874;2023-06-14T01:41:01;31.26;29.02;34.37;;
73638;Laerm;53743;51.100;5.874;2023-06-14T01:42:05;30.89;28.50;37.81;;
73638;Laerm;53743;51.100;5.874;2023-06-14T01:43:11;30.22;28.47;31.96;;
73638;Laerm;53743;51.100;5.874;2023-06-14T01:44:16;30.55;28.84;32.85;;
73638;Laerm;53743;51.100;5.874;2023-06-14T01:45:21;30.38;28.64;32.24;;
73638;Laerm;53743;51.100;5.874;2023-06-14T01:46:25;32.03;29.23;35.88;;
73638;Laerm;53743;51.100;5.874;2023-06-14T01:47:30;32.52;29.95;36.11;;
73638;Laerm;53743;51.100;5.874;2023-06-14T01:48:32;32.89;29.60;38.19;;
73638;Laerm;53743;51.100;5.874;2023-06-14T01:49:34;32.64;29.86;35.99;;
73638;Laerm;53743;51.100;5.874;2023-06-14T01:50:35;33.24;30.03;37.43;;
73638;Laerm;53743;51.100;5.874;2023-06-14T01:51:38;33.48;30.06;37.19;;
73638;Laerm;53743;51.100;5.874;2023-06-14T01:52:39;32.52;28.60;38.75;;
73638;Laerm;53743;51.100;5.874;2023-06-14T01:53:43;33.71;29.28;41.02;;
73638;Laerm;53743;51.100;5.874;2023-06-14T01:54:45;37.74;28.50;46.47;;
73638;Laerm;53743;51.100;5.874;2023-06-14T01:55:48;56.17;30.05;73.12;;
73638;Laerm;53743;51.100;5.874;2023-06-14T01:56:49;57.60;29.69;72.76;;
73638;Laerm;53743;51.100;5.874;2023-06-14T01:57:51;39.81;29.00;53.40;;
73638;Laerm;53743;51.100;5.874;2023-06-14T01:58:53;54.75;30.59;71.17;;
73638;Laerm;53743;51.100;5.874;2023-06-14T01:59:55;43.67;30.96;54.97;;
73638;Laerm;53743;51.100;5.874;2023-06-14T02:00:57;47.20;39.60;55.06;;
73638;Laerm;53743;51.100;5.874;2023-06-14T02:02:03;43.48;31.27;55.00;;
73638;Laerm;53743;51.100;5.874;2023-06-14T02:03:06;43.47;30.74;56.08;;
73638;Laerm;53743;51.100;5.874;2023-06-14T02:04:08;43.77;30.40;55.28;;
73638;Laerm;53743;51.100;5.874;2023-06-14T02:05:10;43.20;30.61;55.02;;
73638;Laerm;53743;51.100;5.874;2023-06-14T02:06:12;44.53;31.83;56.66;;
73638;Laerm;53743;51.100;5.874;2023-06-14T02:07:14;46.15;30.94;56.63;;
73638;Laerm;53743;51.100;5.874;2023-06-14T02:08:16;57.17;31.43;74.27;;
73638;Laerm;53743;51.100;5.874;2023-06-14T02:09:19;58.90;33.29;73.56;;
73638;Laerm;53743;51.100;5.874;2023-06-14T02:10:21;58.61;32.11;72.21;;
73638;Laerm;53743;51.100;5.874;2023-06-14T02:11:23;58.19;31.80;72.94;;
73638;Laerm;53743;51.100;5.874;2023-06-14T02:12:25;59.81;32.69;72.42;;
73638;Laerm;53743;51.100;5.874;2023-06-14T02:13:26;58.36;32.60;72.13;;
73638;Laerm;53743;51.100;5.874;2023-06-14T02:14:28;57.73;33.77;72.69;;
73638;Laerm;53743;51.100;5.874;2023-06-14T02:15:29;57.82;33.93;72.15;;
73638;Laerm;53743;51.100;5.874;2023-06-14T02:16:35;54.41;34.36;68.32;;
73638;Laerm;53743;51.100;5.874;2023-06-14T02:17:36;47.57;31.85;59.71;;
73638;Laerm;53743;51.100;5.874;2023-06-14T02:18:40;55.07;34.58;70.50;;
73638;Laerm;53743;51.100;5.874;2023-06-14T02:19:42;47.03;33.39;58.63;;
73638;Laerm;53743;51.100;5.874;2023-06-14T02:20:44;47.78;32.83;60.45;;
73638;Laerm;53743;51.100;5.874;2023-06-14T02:21:47;51.94;34.21;66.27;;
73638;Laerm;53743;51.100;5.874;2023-06-14T02:22:49;59.14;34.23;73.53;;
73638;Laerm;53743;51.100;5.874;2023-06-14T02:23:50;51.27;33.07;63.22;;
73638;Laerm;53743;51.100;5.874;2023-06-14T02:24:53;50.89;33.54;64.53;;
73638;Laerm;53743;51.100;5.874;2023-06-14T02:25:54;51.07;32.67;64.19;;
73638;Laerm;53743;51.100;5.874;2023-06-14T02:26:57;48.93;32.98;61.74;;
73638;Laerm;53743;51.100;5.874;2023-06-14T02:27:58;48.59;33.01;59.26;;
73638;Laerm;53743;51.100;5.874;2023-06-14T02:29:00;49.13;33.48;61.82;;
73638;Laerm;53743;51.100;5.874;2023-06-14T02:30:02;48.26;33.12;60.80;;
73638;Laerm;53743;51.100;5.874;2023-06-14T02:31:07;48.32;34.89;60.61;;
73638;Laerm;53743;51.100;5.874;2023-06-14T02:32:08;50.49;35.10;61.33;;
73638;Laerm;53743;51.100;5.874;2023-06-14T02:33:10;49.23;33.81;62.82;;
73638;Laerm;53743;51.100;5.874;2023-06-14T02:34:15;48.95;33.43;60.99;;
73638;Laerm;53743;51.100;5.874;2023-06-14T02:35:17;49.97;33.93;61.38;;
73638;Laerm;53743;51.100;5.874;2023-06-14T02:36:21;57.14;32.83;70.09;;
73638;Laerm;53743;51.100;5.874;2023-06-14T02:37:22;46.01;33.56;59.58;;
73638;Laerm;53743;51.100;5.874;2023-06-14T02:38:24;46.32;33.28;60.26;;
73638;Laerm;53743;51.100;5.874;2023-06-14T02:39:25;57.86;34.29;71.90;;
73638;Laerm;53743;51.100;5.874;2023-06-14T02:40:28;46.94;33.38;60.47;;
73638;Laerm;53743;51.100;5.874;2023-06-14T02:41:31;47.25;32.95;59.12;;
73638;Laerm;53743;51.100;5.874;2023-06-14T02:42:33;45.06;32.34;57.64;;
73638;Laerm;53743;51.100;5.874;2023-06-14T02:43:34;44.34;31.93;56.74;;
73638;Laerm;53743;51.100;5.874;2023-06-14T02:44:37;44.99;32.57;57.50;;
73638;Laerm;53743;51.100;5.874;2023-06-14T02:45:38;45.75;32.47;58.55;;
73638;Laerm;53743;51.100;5.874;2023-06-14T02:46:40;45.70;32.20;57.42;;
73638;Laerm;53743;51.100;5.874;2023-06-14T02:47:41;49.60;31.38;65.13;;
73638;Laerm;53743;51.100;5.874;2023-06-14T02:48:45;50.88;31.65;67.20;;
73638;Laerm;53743;51.100;5.874;2023-06-14T02:49:46;57.67;32.48;74.87;;
73638;Laerm;53743;51.100;5.874;2023-06-14T02:50:49;57.35;32.41;72.82;;
73638;Laerm;53743;51.100;5.874;2023-06-14T02:51:51;42.13;33.66;56.11;;
73638;Laerm;53743;51.100;5.874;2023-06-14T02:52:53;54.07;34.78;69.09;;
73638;Laerm;53743;51.100;5.874;2023-06-14T02:53:57;43.21;32.78;56.98;;
73638;Laerm;53743;51.100;5.874;2023-06-14T02:54:59;57.70;33.08;73.41;;
73638;Laerm;53743;51.100;5.874;2023-06-14T02:56:02;43.27;35.04;55.64;;
73638;Laerm;53743;51.100;5.874;2023-06-14T02:57:06;53.10;32.91;68.80;;
73638;Laerm;53743;51.100;5.874;2023-06-14T02:58:08;37.47;32.27;49.24;;
73638;Laerm;53743;51.100;5.874;2023-06-14T02:59:11;61.71;32.07;80.92;;
73638;Laerm;53743;51.100;5.874;2023-06-14T03:00:14;56.14;33.30;72.79;;
73638;Laerm;53743;51.100;5.874;2023-06-14T03:01:20;43.47;32.15;54.69;;
73638;Laerm;53743;51.100;5.874;2023-06-14T03:02:22;47.88;33.69;57.70;;
73638;Laerm;53743;51.100;5.874;2023-06-14T03:03:24;44.39;32.63;57.83;;
73638;Laerm;53743;51.100;5.874;2023-06-14T03:04:29;53.31;33.05;67.72;;
73638;Laerm;53743;51.100;5.874;2023-06-14T03:05:37;38.44;32.40;54.32;;
73638;Laerm;53743;51.100;5.874;2023-06-14T03:06:42;40.77;33.22;54.59;;
73638;Laerm;53743;51.100;5.874;2023-06-14T03:07:45;38.29;32.44;49.36;;
73638;Laerm;53743;51.100;5.874;2023-06-14T03:08:48;57.04;33.01;73.35;;
73638;Laerm;53743;51.100;5.874;2023-06-14T03:09:50;40.23;33.00;50.59;;
73638;Laerm;53743;51.100;5.874;2023-06-14T03:10:53;54.98;32.43;73.05;;
73638;Laerm;53743;51.100;5.874;2023-06-14T03:11:56;59.31;34.55;72.91;;
73638;Laerm;53743;51.100;5.874;2023-06-14T03:12:58;38.67;32.90;49.08;;
73638;Laerm;53743;51.100;5.874;2023-06-14T03:14:00;41.37;33.41;53.66;;
73638;Laerm;53743;51.100;5.874;2023-06-14T03:15:05;59.72;34.91;74.65;;
73638;Laerm;53743;51.100;5.874;2023-06-14T03:16:10;53.24;33.73;68.46;;
73638;Laerm;53743;51.100;5.874;2023-06-14T03:17:14;59.59;33.84;77.31;;
73638;Laerm;53743;51.100;5.874;2023-06-14T03:18:16;46.08;33.25;62.99;;
73638;Laerm;53743;51.100;5.874;2023-06-14T03:19:18;44.66;33.48;55.55;;
73638;Laerm;53743;51.100;5.874;2023-06-14T03:20:19;57.04;33.27;73.01;;
73638;Laerm;53743;51.100;5.874;2023-06-14T03:21:22;43.78;33.29;54.25;;
73638;Laerm;53743;51.100;5.874;2023-06-14T03:22:24;44.92;33.67;69.56;;
73638;Laerm;53743;51.100;5.874;2023-06-14T03:23:27;56.68;33.58;77.70;;
73638;Laerm;53743;51.100;5.874;2023-06-14T03:24:28;47.82;33.67;77.14;;
73638;Laerm;53743;51.100;5.874;2023-06-14T03:25:34;54.11;34.48;67.86;;
73638;Laerm;53743;51.100;5.874;2023-06-14T03:26:37;48.13;34.80;57.54;;
73638;Laerm;53743;51.100;5.874;2023-06-14T03:27:40;57.73;33.85;73.54;;
73638;Laerm;53743;51.100;5.874;2023-06-14T03:28:41;58.65;34.47;74.79;;
73638;Laerm;53743;51.100;5.874;2023-06-14T03:29:43;46.38;33.23;65.57;;
73638;Laerm;53743;51.100;5.874;2023-06-14T03:30:45;47.52;34.11;62.62;;
73638;Laerm;53743;51.100;5.874;2023-06-14T03:31:58;57.93;34.71;71.50;;
73638;Laerm;53743;51.100;5.874;2023-06-14T03:33:02;59.85;35.48;74.40;;
73638;Laerm;53743;51.100;5.874;2023-06-14T03:34:06;49.63;33.20;66.91;;
73638;Laerm;53743;51.100;5.874;2023-06-14T03:35:08;43.51;33.91;59.67;;
73638;Laerm;53743;51.100;5.874;2023-06-14T03:36:17;51.31;33.40;65.80;;
73638;Laerm;53743;51.100;5.874;2023-06-14T03:37:19;54.81;33.69;71.67;;
73638;Laerm;53743;51.100;5.874;2023-06-14T03:38:22;42.65;32.21;56.30;;
73638;Laerm;53743;51.100;5.874;2023-06-14T03:39:25;40.91;33.35;52.16;;
73638;Laerm;53743;51.100;5.874;2023-06-14T03:40:26;39.59;33.92;53.34;;
73638;Laerm;53743;51.100;5.874;2023-06-14T03:41:34;55.52;34.83;70.00;;
73638;Laerm;53743;51.100;5.874;2023-06-14T03:42:36;61.02;37.13;77.35;;
73638;Laerm;53743;51.100;5.874;2023-06-14T03:43:39;44.04;34.60;58.38;;
73638;Laerm;53743;51.100;5.874;2023-06-14T03:44:40;41.11;33.45;51.11;;
73638;Laerm;53743;51.100;5.874;2023-06-14T03:45:43;57.16;34.09;73.59;;
73638;Laerm;53743;51.100;5.874;2023-06-14T03:46:44;62.32;34.63;75.41;;
73638;Laerm;53743;51.100;5.874;2023-06-14T03:47:47;56.41;35.51;73.98;;
73638;Laerm;53743;51.100;5.874;2023-06-14T03:48:48;44.97;34.03;59.00;;
73638;Laerm;53743;51.100;5.874;2023-06-14T03:49:51;59.72;35.44;75.42;;
73638;Laerm;53743;51.100;5.874;2023-06-14T03:50:52;54.36;34.38;71.72;;
73638;Laerm;53743;51.100;5.874;2023-06-14T03:51:55;56.54;35.25;71.54;;
73638;Laerm;53743;51.100;5.874;2023-06-14T03:53:00;47.97;34.17;68.99;;
73638;Laerm;53743;51.100;5.874;2023-06-14T03:54:02;47.53;33.36;59.93;;
73638;Laerm;53743;51.100;5.874;2023-06-14T03:55:05;59.63;35.01;75.03;;
73638;Laerm;53743;51.100;5.874;2023-06-14T03:56:09;58.97;35.31;71.84;;
73638;Laerm;53743;51.100;5.874;2023-06-14T03:57:15;46.58;34.66;60.58;;
73638;Laerm;53743;51.100;5.874;2023-06-14T03:58:18;60.75;37.83;73.86;;
73638;Laerm;53743;51.100;5.874;2023-06-14T03:59:21;60.13;37.94;74.93;;
73638;Laerm;53743;51.100;5.874;2023-06-14T04:00:23;59.29;34.46;75.94;;
73638;Laerm;53743;51.100;5.874;2023-06-14T04:01:24;59.06;33.09;78.56;;
73638;Laerm;53743;51.100;5.874;2023-06-14T04:02:28;59.19;37.04;77.98;;
73638;Laerm;53743;51.100;5.874;2023-06-14T04:03:29;54.50;35.10;69.18;;
73638;Laerm;53743;51.100;5.874;2023-06-14T04:04:34;54.55;33.84;70.45;;
73638;Laerm;53743;51.100;5.874;2023-06-14T04:05:36;57.61;35.28;70.26;;
73638;Laerm;53743;51.100;5.874;2023-06-14T04:06:38;54.29;35.00;70.59;;
73638;Laerm;53743;51.100;5.874;2023-06-14T04:07:41;57.79;36.23;74.78;;
73638;Laerm;53743;51.100;5.874;2023-06-14T04:08:45;60.47;35.40;79.84;;
73638;Laerm;53743;51.100;5.874;2023-06-14T04:09:47;51.37;34.11;61.60;;
73638;Laerm;53743;51.100;5.874;2023-06-14T04:10:49;59.04;36.19;72.59;;
73638;Laerm;53743;51.100;5.874;2023-06-14T04:11:51;54.86;33.70;69.71;;
73638;Laerm;53743;51.100;5.874;2023-06-14T04:12:53;56.78;33.80;69.70;;
73638;Laerm;53743;51.100;5.874;2023-06-14T04:13:54;56.64;35.58;69.12;;
73638;Laerm;53743;51.100;5.874;2023-06-14T04:14:58;52.98;35.48;67.70;;
73638;Laerm;53743;51.100;5.874;2023-06-14T04:16:00;57.49;36.61;73.07;;
73638;Laerm;53743;51.100;5.874;2023-06-14T04:17:08;54.24;34.95;69.62;;
73638;Laerm;53743;51.100;5.874;2023-06-14T04:18:11;58.03;36.28;71.40;;
73638;Laerm;53743;51.100;5.874;2023-06-14T04:19:14;59.81;35.33;72.01;;
73638;Laerm;53743;51.100;5.874;2023-06-14T04:20:15;59.62;35.43;74.13;;
73638;Laerm;53743;51.100;5.874;2023-06-14T04:21:18;59.91;37.88;73.50;;
73638;Laerm;53743;51.100;5.874;2023-06-14T04:22:20;62.54;35.78;76.79;;
73638;Laerm;53743;51.100;5.874;2023-06-14T04:23:22;60.99;36.97;77.55;;
73638;Laerm;53743;51.100;5.874;2023-06-14T04:24:24;60.39;34.78;72.58;;
73638;Laerm;53743;51.100;5.874;2023-06-14T04:25:32;62.03;35.87;73.06;;
73638;Laerm;53743;51.100;5.874;2023-06-14T04:26:35;57.06;35.53;72.38;;
73638;Laerm;53743;51.100;5.874;2023-06-14T04:27:37;59.88;35.12;69.65;;
73638;Laerm;53743;51.100;5.874;2023-06-14T04:28:40;59.39;35.13;72.22;;
73638;Laerm;53743;51.100;5.874;2023-06-14T04:29:42;56.50;35.97;70.15;;
73638;Laerm;53743;51.100;5.874;2023-06-14T04:30:48;62.86;36.50;75.40;;
73638;Laerm;53743;51.100;5.874;2023-06-14T04:31:51;60.38;35.57;72.74;;
73638;Laerm;53743;51.100;5.874;2023-06-14T04:32:55;56.68;36.14;72.73;;
73638;Laerm;53743;51.100;5.874;2023-06-14T04:33:56;55.28;34.62;67.74;;
73638;Laerm;53743;51.100;5.874;2023-06-14T04:35:00;55.96;35.94;72.88;;
73638;Laerm;53743;51.100;5.874;2023-06-14T04:36:05;61.83;37.15;77.83;;
73638;Laerm;53743;51.100;5.874;2023-06-14T04:37:08;57.52;37.24;70.71;;
73638;Laerm;53743;51.100;5.874;2023-06-14T04:38:13;59.63;37.96;71.35;;
73638;Laerm;53743;51.100;5.874;2023-06-14T04:39:17;65.86;41.16;78.52;;
73638;Laerm;53743;51.100;5.874;2023-06-14T04:40:19;53.75;35.71;72.50;;
73638;Laerm;53743;51.100;5.874;2023-06-14T04:41:22;55.81;36.30;70.84;;
73638;Laerm;53743;51.100;5.874;2023-06-14T04:42:24;61.36;37.83;73.41;;
73638;Laerm;53743;51.100;5.874;2023-06-14T04:43:33;58.45;36.23;72.38;;
73638;Laerm;53743;51.100;5.874;2023-06-14T04:44:39;59.65;35.93;73.84;;
73638;Laerm;53743;51.100;5.874;2023-06-14T04:45:40;60.26;35.88;72.31;;
73638;Laerm;53743;51.100;5.874;2023-06-14T04:46:47;58.57;38.23;72.34;;
73638;Laerm;53743;51.100;5.874;2023-06-14T04:47:58;63.60;45.22;74.49;;
73638;Laerm;53743;51.100;5.874;2023-06-14T04:49:02;67.91;41.81;80.69;;
73638;Laerm;53743;51.100;5.874;2023-06-14T04:50:04;58.99;37.25;74.13;;
73638;Laerm;53743;51.100;5.874;2023-06-14T04:51:07;63.10;37.83;87.16;;
73638;Laerm;53743;51.100;5.874;2023-06-14T04:52:08;59.46;38.28;75.77;;
73638;Laerm;53743;51.100;5.874;2023-06-14T04:53:16;63.92;42.26;77.26;;
73638;Laerm;53743;51.100;5.874;2023-06-14T04:54:17;61.67;42.60;79.10;;
73638;Laerm;53743;51.100;5.874;2023-06-14T04:55:21;63.46;41.84;76.92;;
73638;Laerm;53743;51.100;5.874;2023-06-14T04:56:22;60.62;37.30;76.04;;
73638;Laerm;53743;51.100;5.874;2023-06-14T04:57:25;63.21;37.09;78.07;;
73638;Laerm;53743;51.100;5.874;2023-06-14T04:58:30;63.29;44.01;74.50;;
73638;Laerm;53743;51.100;5.874;2023-06-14T04:59:33;60.30;38.82;71.28;;
73638;Laerm;53743;51.100;5.874;2023-06-14T05:00:36;58.04;37.91;74.78;;
73638;Laerm;53743;51.100;5.874;2023-06-14T05:01:38;62.74;41.71;76.80;;
73638;Laerm;53743;51.100;5.874;2023-06-14T05:02:41;63.50;42.71;75.63;;
73638;Laerm;53743;51.100;5.874;2023-06-14T05:03:43;62.72;43.10;72.19;;
73638;Laerm;53743;51.100;5.874;2023-06-14T05:04:45;62.22;40.35;73.27;;
73638;Laerm;53743;51.100;5.874;2023-06-14T05:05:48;59.25;39.26;71.15;;
73638;Laerm;53743;51.100;5.874;2023-06-14T05:06:49;57.31;37.36;71.91;;
73638;Laerm;53743;51.100;5.874;2023-06-14T05:07:52;60.83;36.53;74.28;;
73638;Laerm;53743;51.100;5.874;2023-06-14T05:08:53;65.01;36.29;77.31;;
73638;Laerm;53743;51.100;5.874;2023-06-14T05:09:55;63.23;38.71;78.28;;
73638;Laerm;53743;51.100;5.874;2023-06-14T05:10:56;63.53;37.41;78.90;;
73638;Laerm;53743;51.100;5.874;2023-06-14T05:11:58;59.84;38.18;71.58;;
73638;Laerm;53743;51.100;5.874;2023-06-14T05:13:01;61.12;41.90;73.79;;
73638;Laerm;53743;51.100;5.874;2023-06-14T05:14:04;58.04;36.17;69.05;;
73638;Laerm;53743;51.100;5.874;2023-06-14T05:15:08;62.23;43.14;75.72;;
73638;Laerm;53743;51.100;5.874;2023-06-14T05:16:11;59.03;41.69;72.13;;
73638;Laerm;53743;51.100;5.874;2023-06-14T05:17:14;62.12;41.63;73.53;;
73638;Laerm;53743;51.100;5.874;2023-06-14T05:18:16;63.83;43.26;74.04;;
73638;Laerm;53743;51.100;5.874;2023-06-14T05:19:18;64.56;42.78;75.44;;
73638;Laerm;53743;51.100;5.874;2023-06-14T05:20:19;62.46;40.57;74.82;;
73638;Laerm;53743;51.100;5.874;2023-06-14T05:21:21;62.63;44.68;75.26;;
73638;Laerm;53743;51.100;5.874;2023-06-14T05:22:24;57.99;37.23;68.62;;
73638;Laerm;53743;51.100;5.874;2023-06-14T05:23:25;59.67;36.90;75.45;;
73638;Laerm;53743;51.100;5.874;2023-06-14T05:24:27;62.07;38.77;74.81;;
73638;Laerm;53743;51.100;5.874;2023-06-14T05:25:30;63.25;36.63;75.96;;
73638;Laerm;53743;51.100;5.874;2023-06-14T05:26:32;61.84;46.12;72.87;;
73638;Laerm;53743;51.100;5.874;2023-06-14T05:27:34;63.59;43.07;73.69;;
73638;Laerm;53743;51.100;5.874;2023-06-14T05:28:37;59.25;36.65;71.06;;
73638;Laerm;53743;51.100;5.874;2023-06-14T05:29:38;59.87;37.18;71.16;;
73638;Laerm;53743;51.100;5.874;2023-06-14T05:30:40;61.85;41.93;73.98;;
73638;Laerm;53743;51.100;5.874;2023-06-14T05:31:42;64.58;45.71;74.42;;
73638;Laerm;53743;51.100;5.874;2023-06-14T05:32:44;65.88;43.99;77.60;;
73638;Laerm;53743;51.100;5.874;2023-06-14T05:33:46;64.70;42.96;74.44;;
73638;Laerm;53743;51.100;5.874;2023-06-14T05:34:49;60.01;38.44;72.76;;
73638;Laerm;53743;51.100;5.874;2023-06-14T05:35:50;62.57;38.90;71.91;;
73638;Laerm;53743;51.100;5.874;2023-06-14T05:36:52;63.23;41.26;75.12;;
73638;Laerm;53743;51.100;5.874;2023-06-14T05:37:53;58.70;39.84;72.35;;
73638;Laerm;53743;51.100;5.874;2023-06-14T05:38:55;63.10;47.48;71.27;;
73638;Laerm;53743;51.100;5.874;2023-06-14T05:39:58;66.09;45.61;77.04;;
73638;Laerm;53743;51.100;5.874;2023-06-14T05:41:00;62.27;41.77;76.70;;
73638;Laerm;53743;51.100;5.874;2023-06-14T05:42:03;61.44;42.59;74.74;;
73638;Laerm;53743;51.100;5.874;2023-06-14T05:43:04;63.33;39.57;75.87;;
73638;Laerm;53743;51.100;5.874;2023-06-14T05:44:06;60.74;36.83;72.62;;
73638;Laerm;53743;51.100;5.874;2023-06-14T05:45:08;63.81;44.16;75.59;;
73638;Laerm;53743;51.100;5.874;2023-06-14T05:46:10;63.52;38.97;76.18;;
73638;Laerm;53743;51.100;5.874;2023-06-14T05:47:11;61.76;42.22;74.28;;
73638;Laerm;53743;51.100;5.874;2023-06-14T05:48:13;63.59;48.08;71.68;;
73638;Laerm;53743;51.100;5.874;2023-06-14T05:49:16;62.61;39.24;74.96;;
73638;Laerm;53743;51.100;5.874;2023-06-14T05:50:18;65.34;45.08;78.77;;
73638;Laerm;53743;51.100;5.874;2023-06-14T05:51:19;65.46;50.40;74.98;;
73638;Laerm;53743;51.100;5.874;2023-06-14T05:52:21;61.35;47.13;72.90;;
73638;Laerm;53743;51.100;5.874;2023-06-14T05:53:22;49.15;41.48;60.73;;
73638;Laerm;53743;51.100;5.874;2023-06-14T05:54:24;66.29;38.78;77.21;;